Time;durP1;ratioP1;P1;durP2;ratioP2;P2;SDS_P1;SDS_P2;PMS_P1;PMS_P2;Temp;Humidity;BMP_temperature;BMP_pressure;BME280_temperature;BME280_humidity;BME280_pressure;Samples;Min_cycle;Max_cycle;Signal;HPM_P1;HPM_P2
2023/08/14 00:01:03;;;;;;;13.40;8.77;;;15.70;99.90;;;;;;5117582;28;20407;-52
2023/08/14 00:03:29;;;;;;;16.30;8.73;;;15.70;99.90;;;;;;5117132;28;20234;-53
2023/08/14 00:05:54;;;;;;;14.57;8.80;;;15.70;99.90;;;;;;5116840;28;20184;-52
2023/08/14 00:08:20;;;;;;;15.30;9.60;;;15.80;99.90;;;;;;5117153;28;20281;-52
2023/08/14 00:10:46;;;;;;;12.93;8.67;;;15.70;99.90;;;;;;5117125;28;20557;-53
2023/08/14 00:13:12;;;;;;;15.07;8.90;;;15.70;99.90;;;;;;5117058;28;20183;-54
2023/08/14 00:15:38;;;;;;;17.23;8.80;;;15.70;99.90;;;;;;5116611;28;20184;-52
2023/08/14 00:18:05;;;;;;;13.97;8.73;;;15.60;99.90;;;;;;5117283;28;20477;-52
2023/08/14 00:20:31;;;;;;;12.10;8.67;;;15.70;99.90;;;;;;5116745;28;20889;-52
2023/08/14 00:22:57;;;;;;;15.60;8.80;;;15.70;99.90;;;;;;5116707;28;20478;-52
2023/08/14 00:25:22;;;;;;;12.97;9.20;;;15.60;99.90;;;;;;5117246;28;20760;-52
2023/08/14 00:27:48;;;;;;;15.63;9.07;;;15.60;99.90;;;;;;5116933;28;20652;-53
2023/08/14 00:30:14;;;;;;;17.53;8.77;;;15.60;99.90;;;;;;5116739;28;20181;-52
2023/08/14 00:32:39;;;;;;;12.60;7.97;;;15.50;99.90;;;;;;5116486;28;20237;-52
2023/08/14 00:35:05;;;;;;;9.97;7.13;;;15.50;99.90;;;;;;5116954;28;20573;-53
2023/08/14 00:37:44;;;;;;;11.53;7.67;;;15.50;99.90;;;;;;5116715;28;20185;-53
2023/08/14 00:40:11;;;;;;;13.07;8.20;;;15.50;99.90;;;;;;5116547;28;20644;-52
2023/08/14 00:42:38;;;;;;;13.77;7.87;;;15.50;99.90;;;;;;5116633;28;20415;-52
2023/08/14 00:45:05;;;;;;;18.13;8.40;;;15.50;99.90;;;;;;5116408;28;20901;-51
2023/08/14 00:47:31;;;;;;;14.80;7.37;;;15.50;99.90;;;;;;5116320;28;20882;-52
2023/08/14 00:49:57;;;;;;;14.80;8.00;;;15.50;99.90;;;;;;5116120;28;20454;-54
2023/08/14 00:52:22;;;;;;;14.63;8.90;;;15.50;99.90;;;;;;5116385;28;20187;-52
2023/08/14 00:54:48;;;;;;;11.43;7.93;;;15.50;99.90;;;;;;5116044;28;20540;-52
2023/08/14 00:57:14;;;;;;;14.10;8.40;;;15.50;99.90;;;;;;5115957;28;20233;-52
2023/08/14 00:59:39;;;;;;;11.27;6.97;;;15.50;99.90;;;;;;5115635;28;20186;-51
2023/08/14 01:02:05;;;;;;;11.90;7.87;;;15.40;99.90;;;;;;5116411;28;20275;-51
2023/08/14 01:04:31;;;;;;;10.60;7.10;;;15.50;99.90;;;;;;5116009;28;20184;-52
2023/08/14 01:06:57;;;;;;;9.60;7.00;;;15.40;99.90;;;;;;5115894;28;20814;-52
2023/08/14 01:09:22;;;;;;;11.73;7.00;;;15.40;99.90;;;;;;5115745;28;20179;-52
2023/08/14 01:12:12;;;;;;;11.67;7.23;;;15.40;99.90;;;;;;5115619;28;20173;-52
2023/08/14 01:14:39;;;;;;;11.70;6.70;;;15.30;99.90;;;;;;5115892;28;20178;-52
2023/08/14 01:17:10;;;;;;;15.40;7.40;;;15.30;99.90;;;;;;5115804;28;20897;-53
2023/08/14 01:19:41;;;;;;;9.90;7.00;;;15.30;99.90;;;;;;5115969;28;20410;-53
2023/08/14 01:22:54;;;;;;;11.40;7.77;;;15.30;99.90;;;;;;5115919;28;20571;-51
2023/08/14 01:25:33;;;;;;;8.17;6.87;;;15.40;99.90;;;;;;5032719;28;20440;-52
2023/08/14 01:28:01;;;;;;;11.73;7.13;;;15.40;99.90;;;;;;5032574;28;20977;-52
2023/08/14 01:30:26;;;;;;;14.20;7.93;;;15.30;99.90;;;;;;5084885;28;20438;-51
2023/08/14 01:32:53;;;;;;;12.53;7.40;;;15.30;99.90;;;;;;5115223;28;20505;-52
2023/08/14 01:35:21;;;;;;;12.80;6.63;;;15.30;99.90;;;;;;5115582;28;20187;-51
2023/08/14 01:38:11;;;;;;;11.00;7.63;;;15.30;99.90;;;;;;5115745;28;20429;-52
2023/08/14 01:40:59;;;;;;;10.37;7.63;;;15.30;99.90;;;;;;5115412;28;20401;-52
2023/08/14 01:43:30;;;;;;;11.83;6.80;;;15.20;99.90;;;;;;5115438;28;20402;-52
2023/08/14 01:45:57;;;;;;;10.73;6.63;;;15.20;99.90;;;;;;5115283;28;20467;-52
2023/08/14 01:48:24;;;;;;;8.93;6.87;;;15.20;99.90;;;;;;5115392;28;20462;-51
2023/08/14 01:50:51;;;;;;;10.00;7.20;;;15.20;99.90;;;;;;5115116;28;20954;-51
2023/08/14 01:53:17;;;;;;;15.37;7.00;;;15.20;99.90;;;;;;5115298;28;20414;-52
2023/08/14 01:55:43;;;;;;;9.17;6.80;;;15.20;99.90;;;;;;5115240;28;20879;-52
2023/08/14 01:58:09;;;;;;;10.37;7.50;;;15.20;99.90;;;;;;5115040;28;20900;-52
2023/08/14 02:00:36;;;;;;;10.60;7.70;;;15.20;99.90;;;;;;5115418;28;20463;-52
2023/08/14 02:03:02;;;;;;;8.27;6.57;;;15.20;99.90;;;;;;5115265;28;20264;-53
2023/08/14 02:05:27;;;;;;;12.10;7.03;;;15.20;99.90;;;;;;5115001;28;20465;-52
2023/08/14 02:07:54;;;;;;;14.73;7.67;;;15.20;99.90;;;;;;5114982;28;20216;-52
2023/08/14 02:10:19;;;;;;;11.30;7.63;;;15.20;99.90;;;;;;5113738;28;20273;-52
2023/08/14 02:12:45;;;;;;;10.33;7.30;;;15.20;99.90;;;;;;5114477;28;20447;-51
2023/08/14 02:15:11;;;;;;;10.47;6.90;;;15.20;99.90;;;;;;5114422;28;20178;-51
2023/08/14 02:17:36;;;;;;;13.80;7.27;;;15.20;99.90;;;;;;5096454;28;20262;-52
2023/08/14 02:20:02;;;;;;;10.00;6.30;;;15.20;99.90;;;;;;5114727;28;20176;-53
2023/08/14 02:22:28;;;;;;;11.57;7.50;;;15.20;99.90;;;;;;5114205;28;20289;-52
2023/08/14 02:24:54;;;;;;;14.17;7.50;;;15.20;99.90;;;;;;5114398;28;20442;-51
2023/08/14 02:27:20;;;;;;;13.20;7.10;;;15.10;99.90;;;;;;5114572;28;20212;-51
2023/08/14 02:29:45;;;;;;;18.43;7.37;;;15.10;99.90;;;;;;5114541;28;20252;-50
2023/08/14 02:32:11;;;;;;;11.17;7.50;;;15.10;99.90;;;;;;5114179;28;20275;-51
2023/08/14 02:34:52;;;;;;;11.93;6.30;;;15.10;99.90;;;;;;5114499;28;20215;-53
2023/08/14 02:37:18;;;;;;;8.37;6.20;;;15.00;99.90;;;;;;5114819;28;20172;-52
2023/08/14 02:39:44;;;;;;;9.40;6.47;;;15.00;99.90;;;;;;5114599;28;20421;-51
2023/08/14 02:42:10;;;;;;;14.33;7.23;;;14.90;99.90;;;;;;5114394;28;20414;-53
2023/08/14 02:44:36;;;;;;;12.23;7.03;;;14.90;99.90;;;;;;5114364;28;20423;-51
2023/08/14 02:47:03;;;;;;;15.40;6.47;;;14.90;99.90;;;;;;5114257;28;20467;-53
2023/08/14 02:49:29;;;;;;;14.00;7.70;;;14.80;99.90;;;;;;5114077;28;20181;-51
2023/08/14 02:51:55;;;;;;;11.37;6.90;;;14.80;99.90;;;;;;5113979;28;20414;-52
2023/08/14 02:54:21;;;;;;;9.30;6.80;;;14.80;99.90;;;;;;5114312;28;20180;-51
2023/08/14 02:56:47;;;;;;;11.77;7.10;;;14.80;99.90;;;;;;5114179;28;20422;-51
2023/08/14 02:59:13;;;;;;;10.70;6.43;;;14.80;99.90;;;;;;5114488;28;20237;-51
2023/08/14 03:01:39;;;;;;;7.90;7.10;;;14.70;99.90;;;;;;5114337;28;20853;-51
2023/08/14 03:04:05;;;;;;;17.53;8.30;;;14.70;99.90;;;;;;5114473;28;20655;-54
2023/08/14 03:06:31;;;;;;;11.47;7.87;;;14.60;99.90;;;;;;5114611;28;20184;-52
2023/08/14 03:09:00;;;;;;;9.80;7.20;;;14.60;99.90;;;;;;5114171;28;20541;-50
2023/08/14 03:11:26;;;;;;;10.73;7.23;;;14.60;99.90;;;;;;5114243;28;20493;-51
2023/08/14 03:13:52;;;;;;;8.87;6.50;;;14.50;99.90;;;;;;5114363;28;20422;-52
2023/08/14 03:16:18;;;;;;;9.20;6.70;;;14.50;99.90;;;;;;5114453;28;20952;-51
2023/08/14 03:18:43;;;;;;;11.37;8.03;;;14.50;99.90;;;;;;5113938;28;20292;-51
2023/08/14 03:21:09;;;;;;;8.40;7.43;;;14.50;99.90;;;;;;5113799;28;20301;-51
2023/08/14 03:23:35;;;;;;;12.70;7.17;;;14.40;99.90;;;;;;5117851;28;20176;-51
2023/08/14 03:26:02;;;;;;;8.00;7.20;;;14.40;99.90;;;;;;5118290;28;20180;-52
2023/08/14 03:28:27;;;;;;;9.83;7.30;;;14.40;99.90;;;;;;5118161;28;20472;-51
2023/08/14 03:30:53;;;;;;;10.90;7.60;;;14.40;99.90;;;;;;5117652;28;20407;-50
2023/08/14 03:33:18;;;;;;;10.87;6.70;;;14.40;99.90;;;;;;5117897;28;20181;-51
2023/08/14 03:35:44;;;;;;;9.97;7.20;;;14.30;99.90;;;;;;5118032;28;20237;-51
2023/08/14 03:38:10;;;;;;;9.03;7.53;;;14.30;99.90;;;;;;5117888;28;20184;-52
2023/08/14 03:40:35;;;;;;;9.43;7.20;;;14.30;99.90;;;;;;5117886;28;20202;-51
2023/08/14 03:43:02;;;;;;;10.87;6.97;;;14.30;99.90;;;;;;5117407;28;20184;-51
2023/08/14 03:45:28;;;;;;;11.10;7.10;;;14.30;99.90;;;;;;5117619;28;20181;-51
2023/08/14 03:47:53;;;;;;;10.27;6.20;;;14.20;99.90;;;;;;5117345;28;20948;-51
2023/08/14 03:50:19;;;;;;;14.30;6.70;;;14.20;99.90;;;;;;5117602;28;20180;-51
2023/08/14 03:52:44;;;;;;;8.00;6.43;;;14.20;99.90;;;;;;5117518;28;20183;-51
2023/08/14 03:55:10;;;;;;;9.27;6.43;;;14.20;99.90;;;;;;5117208;28;20548;-50
2023/08/14 03:57:36;;;;;;;12.53;6.87;;;14.20;99.90;;;;;;5117423;28;20191;-51
2023/08/14 04:00:02;;;;;;;9.60;6.40;;;14.10;99.90;;;;;;5117250;28;20409;-52
2023/08/14 04:02:27;;;;;;;12.67;6.70;;;14.10;99.90;;;;;;5117427;28;20196;-50
2023/08/14 04:04:53;;;;;;;7.30;6.43;;;14.00;99.90;;;;;;5116971;28;20412;-51
2023/08/14 04:07:19;;;;;;;8.13;6.40;;;14.00;99.90;;;;;;5116836;28;20216;-51
2023/08/14 04:09:44;;;;;;;8.23;6.80;;;14.00;99.90;;;;;;5116955;28;20179;-51
2023/08/14 04:12:10;;;;;;;9.37;6.77;;;14.00;99.90;;;;;;5116846;28;20209;-50
2023/08/14 04:14:36;;;;;;;11.53;7.60;;;14.00;99.90;;;;;;5117239;28;20191;-51
2023/08/14 04:17:02;;;;;;;9.20;7.60;;;14.00;99.90;;;;;;5117105;28;20172;-52
2023/08/14 04:19:27;;;;;;;7.97;6.63;;;14.10;99.90;;;;;;5117364;28;20188;-51
2023/08/14 04:21:53;;;;;;;12.53;7.60;;;14.10;99.90;;;;;;5117019;28;20788;-51
2023/08/14 04:24:19;;;;;;;11.67;7.60;;;14.10;99.90;;;;;;5117288;28;20646;-52
2023/08/14 04:26:44;;;;;;;9.70;7.77;;;14.20;99.90;;;;;;5116976;28;20620;-52
2023/08/14 04:29:10;;;;;;;14.30;7.50;;;14.20;99.90;;;;;;5116510;28;20651;-50
2023/08/14 04:31:37;;;;;;;10.20;7.40;;;14.20;99.90;;;;;;5116740;28;20186;-51
2023/08/14 04:34:03;;;;;;;8.73;7.17;;;14.20;99.90;;;;;;5115831;28;20669;-51
2023/08/14 04:36:31;;;;;;;10.77;7.97;;;14.20;99.90;;;;;;5116755;28;20819;-51
2023/08/14 04:38:57;;;;;;;9.73;8.10;;;14.30;99.90;;;;;;5116854;28;20485;-51
2023/08/14 04:41:23;;;;;;;12.47;8.47;;;14.30;99.90;;;;;;5116646;28;20420;-51
2023/08/14 04:43:49;;;;;;;16.07;9.10;;;14.40;99.90;;;;;;5116714;28;20187;-51
2023/08/14 04:46:32;;;;;;;10.60;7.43;;;14.50;99.90;;;;;;5116461;28;20408;-51
2023/08/14 04:48:58;;;;;;;13.37;7.90;;;14.50;99.90;;;;;;5116488;28;20188;-51
2023/08/14 04:51:24;;;;;;;11.50;8.90;;;14.60;99.90;;;;;;5116122;28;20917;-51
2023/08/14 04:53:50;;;;;;;10.27;7.73;;;14.70;99.90;;;;;;5116315;28;20440;-51
2023/08/14 04:56:16;;;;;;;13.57;6.60;;;14.70;99.90;;;;;;5116653;28;20950;-53
2023/08/14 04:58:41;;;;;;;7.70;6.23;;;14.70;99.90;;;;;;5116093;28;20187;-51
2023/08/14 05:01:07;;;;;;;8.17;7.13;;;14.80;99.90;;;;;;5116463;28;20227;-50
2023/08/14 05:03:33;;;;;;;9.23;7.60;;;14.80;99.90;;;;;;5115990;28;20191;-50
2023/08/14 05:05:59;;;;;;;12.67;8.13;;;14.90;99.90;;;;;;5116068;28;20194;-51
2023/08/14 05:08:24;;;;;;;14.53;7.70;;;14.90;99.90;;;;;;5115951;28;20468;-51
2023/08/14 05:10:51;;;;;;;10.53;8.30;;;15.00;99.90;;;;;;5115780;28;20651;-52
2023/08/14 05:13:18;;;;;;;10.17;8.33;;;15.10;99.90;;;;;;5115929;28;20239;-51
2023/08/14 05:15:46;;;;;;;9.40;8.40;;;15.20;99.90;;;;;;5115835;28;20745;-53
2023/08/14 05:18:11;;;;;;;14.63;8.07;;;15.30;99.90;;;;;;5115813;28;20410;-52
2023/08/14 05:20:37;;;;;;;9.30;7.80;;;15.30;99.90;;;;;;5115314;28;20761;-51
2023/08/14 05:23:03;;;;;;;14.17;7.80;;;15.40;99.90;;;;;;5115208;28;20249;-51
2023/08/14 05:25:29;;;;;;;11.60;8.50;;;15.40;99.90;;;;;;5115749;28;20180;-52
2023/08/14 05:27:54;;;;;;;17.23;8.43;;;15.50;99.90;;;;;;5115336;28;20364;-52
2023/08/14 05:30:20;;;;;;;11.50;7.90;;;15.60;99.90;;;;;;5115395;28;20183;-52
2023/08/14 05:32:47;;;;;;;10.60;7.60;;;15.70;99.90;;;;;;5115358;28;20640;-52
2023/08/14 05:35:13;;;;;;;19.37;10.23;;;15.80;99.90;;;;;;5115453;28;20628;-52
2023/08/14 05:37:40;;;;;;;17.23;9.83;;;15.90;99.90;;;;;;5115158;28;20422;-52
2023/08/14 05:40:06;;;;;;;18.20;10.40;;;16.10;99.90;;;;;;5115519;28;20685;-52
2023/08/14 05:42:32;;;;;;;15.50;11.70;;;16.30;99.90;;;;;;5115297;28;20442;-52
2023/08/14 05:44:57;;;;;;;12.97;9.80;;;16.50;99.90;;;;;;5115166;28;20748;-53
2023/08/14 05:47:23;;;;;;;16.33;11.40;;;16.70;99.90;;;;;;5115501;28;20207;-52
2023/08/14 05:49:48;;;;;;;18.17;10.87;;;16.90;99.90;;;;;;5114961;28;20643;-54
2023/08/14 05:52:14;;;;;;;14.73;10.83;;;17.10;99.90;;;;;;5115199;28;20179;-53
2023/08/14 05:54:40;;;;;;;14.83;9.40;;;17.40;99.90;;;;;;5115220;28;20185;-54
2023/08/14 05:57:05;;;;;;;13.97;8.97;;;17.60;99.90;;;;;;5115091;28;20623;-53
2023/08/14 05:59:32;;;;;;;18.43;9.17;;;17.90;99.90;;;;;;5115175;28;20188;-53
2023/08/14 06:01:58;;;;;;;12.30;8.07;;;18.10;99.90;;;;;;5115290;28;20585;-53
2023/08/14 06:04:24;;;;;;;13.43;7.73;;;18.20;99.90;;;;;;5115047;28;20420;-53
2023/08/14 06:06:50;;;;;;;9.43;7.83;;;18.20;99.90;;;;;;5114973;28;20208;-53
2023/08/14 06:09:17;;;;;;;14.90;8.23;;;18.20;1.00;;;;;;5114717;28;20421;-53
2023/08/14 06:11:43;;;;;;;9.33;7.40;;;18.20;1.00;;;;;;5115109;28;20335;-53
2023/08/14 06:14:08;;;;;;;11.33;7.63;;;18.20;1.00;;;;;;5114988;28;20496;-53
2023/08/14 06:16:34;;;;;;;9.67;7.37;;;18.30;1.00;;;;;;5114950;28;20595;-53
2023/08/14 06:19:00;;;;;;;11.17;8.00;;;18.50;9.20;;;;;;5114796;28;20601;-53
2023/08/14 06:21:25;;;;;;;8.87;6.67;;;18.90;1.00;;;;;;5114743;28;20774;-53
2023/08/14 06:23:51;;;;;;;11.63;7.23;;;19.10;99.90;;;;;;5114877;28;20187;-53
2023/08/14 06:26:16;;;;;;;9.90;6.70;;;19.40;1.00;;;;;;5115073;28;20262;-54
2023/08/14 06:28:42;;;;;;;11.77;6.70;;;19.70;1.00;;;;;;5114147;28;20208;-54
2023/08/14 06:31:09;;;;;;;9.20;5.83;;;20.20;1.00;;;;;;5114822;28;20752;-52
2023/08/14 06:33:34;;;;;;;15.10;6.00;;;20.50;99.90;;;;;;5114498;28;20674;-54
2023/08/14 06:36:00;;;;;;;10.63;6.13;;;20.70;99.90;;;;;;5095986;28;20423;-54
2023/08/14 06:38:27;;;;;;;9.00;5.90;;;20.80;99.90;;;;;;5114297;28;20276;-54
2023/08/14 06:40:52;;;;;;;13.83;5.83;;;20.80;99.90;;;;;;5096232;28;20422;-54
2023/08/14 06:43:18;;;;;;;10.00;5.60;;;20.80;98.40;;;;;;5114464;28;20413;-54
2023/08/14 06:45:45;;;;;;;11.03;5.20;;;20.80;76.90;;;;;;5114354;28;20501;-54
2023/08/14 06:48:11;;;;;;;16.30;6.20;;;20.70;39.90;;;;;;5113575;28;20887;-53
2023/08/14 06:50:36;;;;;;;16.90;4.80;;;20.50;4.60;;;;;;5113554;28;20513;-54
2023/08/14 06:53:02;;;;;;;9.77;5.73;;;20.50;46.80;;;;;;5114426;28;20515;-54
2023/08/14 06:55:28;;;;;;;10.77;5.50;;;20.50;99.90;;;;;;5114520;28;20180;-54
2023/08/14 06:57:53;;;;;;;11.50;5.40;;;20.70;99.90;;;;;;5117028;28;20511;-54
2023/08/14 07:00:19;;;;;;;9.93;5.20;;;21.00;7.30;;;;;;5118818;28;20230;-54
2023/08/14 07:02:47;;;;;;;9.20;4.77;;;21.50;1.00;;;;;;5118779;28;20687;-54
2023/08/14 07:05:12;;;;;;;11.90;4.97;;;22.00;1.00;;;;;;5118196;28;20625;-54
2023/08/14 07:07:38;;;;;;;6.73;4.70;;;22.20;1.00;;;;;;5118177;28;20469;-54
2023/08/14 07:10:05;;;;;;;8.90;4.77;;;22.40;1.00;;;;;;5117978;28;20183;-53
2023/08/14 07:12:30;;;;;;;13.57;5.13;;;22.70;1.00;;;;;;5118087;28;20920;-53
2023/08/14 07:14:56;;;;;;;8.67;4.73;;;22.90;1.00;;;;;;5118403;28;20406;-53
2023/08/14 07:17:21;;;;;;;8.60;4.60;;;23.00;1.00;;;;;;5118623;28;20681;-53
2023/08/14 07:19:47;;;;;;;10.73;4.57;;;23.20;1.00;;;;;;5118590;28;20269;-53
2023/08/14 07:22:12;;;;;;;8.77;4.77;;;23.60;1.00;;;;;;5118406;28;20236;-52
2023/08/14 07:24:38;;;;;;;7.23;4.50;;;23.90;1.00;;;;;;5117898;28;20236;-53
2023/08/14 07:27:04;;;;;;;6.43;4.00;;;24.20;1.00;;;;;;5117644;28;20205;-52
2023/08/14 07:29:29;;;;;;;9.63;3.60;;;24.50;1.00;;;;;;5118198;28;20184;-53
2023/08/14 07:31:55;;;;;;;6.80;3.63;;;24.60;1.00;;;;;;5117716;28;20172;-52
2023/08/14 07:34:21;;;;;;;10.70;4.10;;;24.80;1.00;;;;;;5118293;28;20179;-52
2023/08/14 07:36:46;;;;;;;9.63;3.87;;;24.90;1.00;;;;;;5117557;28;20567;-52
2023/08/14 07:39:12;;;;;;;7.33;4.17;;;25.10;1.00;;;;;;5118138;28;20260;-52
2023/08/14 07:41:37;;;;;;;7.10;3.97;;;25.30;1.00;;;;;;5117547;28;20196;-53
2023/08/14 07:44:03;;;;;;;8.73;3.77;;;25.40;1.00;;;;;;5117478;28;20173;-52
2023/08/14 07:46:29;;;;;;;13.10;4.03;;;25.40;1.00;;;;;;5117543;28;20230;-52
2023/08/14 07:48:54;;;;;;;12.23;3.90;;;25.60;1.00;;;;;;5117458;28;20226;-52
2023/08/14 07:51:20;;;;;;;9.07;4.23;;;25.40;1.00;;;;;;5117481;28;20172;-53
2023/08/14 07:53:45;;;;;;;8.43;3.90;;;25.30;1.00;;;;;;5117477;28;20633;-53
2023/08/14 07:56:11;;;;;;;13.10;4.50;;;25.20;1.00;;;;;;5117409;28;20173;-53
2023/08/14 07:58:37;;;;;;;7.40;4.53;;;25.30;1.00;;;;;;5117578;28;20656;-53
2023/08/14 08:01:03;;;;;;;12.27;4.50;;;25.20;1.00;;;;;;5117347;28;20259;-53
2023/08/14 08:03:29;;;;;;;6.57;4.30;;;25.30;1.00;;;;;;5117098;28;20442;-53
2023/08/14 08:05:54;;;;;;;9.60;4.63;;;25.40;1.00;;;;;;5117338;28;20188;-53
2023/08/14 08:08:20;;;;;;;15.90;4.60;;;25.40;1.00;;;;;;5115873;28;20684;-52
2023/08/14 08:10:45;;;;;;;9.60;4.67;;;25.40;1.00;;;;;;5117061;28;20641;-53
2023/08/14 08:13:11;;;;;;;8.03;4.77;;;25.40;1.00;;;;;;5116827;28;20172;-52
2023/08/14 08:15:36;;;;;;;13.30;4.60;;;25.30;1.00;;;;;;5116917;28;20184;-53
2023/08/14 08:18:02;;;;;;;11.97;5.30;;;25.40;1.00;;;;;;5117070;28;20180;-53
2023/08/14 08:20:28;;;;;;;16.03;5.43;;;25.40;1.00;;;;;;5117275;28;20636;-53
2023/08/14 08:22:53;;;;;;;9.73;4.67;;;25.50;1.00;;;;;;5116739;28;20234;-53
2023/08/14 08:25:19;;;;;;;12.57;5.10;;;25.80;1.00;;;;;;5116913;28;20181;-53
2023/08/14 08:27:45;;;;;;;8.77;4.93;;;25.90;1.00;;;;;;5116728;28;20672;-53
2023/08/14 08:30:11;;;;;;;8.20;3.93;;;26.20;1.00;;;;;;5116836;28;20607;-53
2023/08/14 08:32:38;;;;;;;11.83;4.10;;;26.40;1.00;;;;;;5116316;28;20291;-52
2023/08/14 08:35:03;;;;;;;6.73;4.10;;;26.40;1.00;;;;;;5116804;28;20505;-52
2023/08/14 08:37:29;;;;;;;10.30;3.90;;;26.50;1.00;;;;;;5116909;28;20455;-52
2023/08/14 08:39:55;;;;;;;5.70;3.80;;;26.50;1.00;;;;;;5116649;28;20198;-52
2023/08/14 08:42:22;;;;;;;8.07;3.63;;;26.60;1.00;;;;;;5116637;28;20628;-52
2023/08/14 08:44:52;;;;;;;8.00;4.03;;;26.70;1.00;;;;;;5116755;28;20204;-52
2023/08/14 08:47:24;;;;;;;6.90;4.03;;;26.80;1.00;;;;;;5116785;28;20446;-52
2023/08/14 08:49:50;;;;;;;8.23;4.23;;;27.00;1.00;;;;;;5097957;28;20783;-53
2023/08/14 08:52:16;;;;;;;10.47;4.83;;;27.20;1.00;;;;;;5116246;28;20879;-52
2023/08/14 08:54:42;;;;;;;10.47;4.73;;;27.20;1.00;;;;;;5116078;28;20468;-53
2023/08/14 08:57:08;;;;;;;8.20;4.23;;;27.20;1.00;;;;;;5116255;28;20894;-53
2023/08/14 08:59:34;;;;;;;14.93;5.27;;;27.20;1.00;;;;;;5116183;28;20234;-53
2023/08/14 09:02:00;;;;;;;9.73;4.53;;;27.00;1.00;;;;;;5116477;28;20414;-53
2023/08/14 09:04:26;;;;;;;6.50;3.90;;;27.00;1.00;;;;;;5116129;28;20258;-53
2023/08/14 09:06:52;;;;;;;11.40;4.50;;;27.30;1.00;;;;;;5116022;28;20215;-52
2023/08/14 09:09:19;;;;;;;7.83;4.40;;;27.00;1.00;;;;;;5115795;28;20633;-52
2023/08/14 09:11:44;;;;;;;10.63;3.83;;;26.90;1.00;;;;;;5115654;28;20636;-53
2023/08/14 09:14:10;;;;;;;8.40;4.20;;;26.80;1.00;;;;;;5115651;28;20414;-52
2023/08/14 09:16:36;;;;;;;4.93;3.70;;;26.70;1.00;;;;;;5115768;28;20184;-52
2023/08/14 09:19:01;;;;;;;9.80;4.37;;;26.60;1.00;;;;;;5115612;28;20177;-52
2023/08/14 09:21:28;;;;;;;9.43;3.67;;;26.60;1.00;;;;;;5115021;28;20242;-52
2023/08/14 09:23:54;;;;;;;5.73;3.50;;;26.80;1.00;;;;;;5115617;28;20547;-52
2023/08/14 09:26:20;;;;;;;10.97;3.93;;;27.10;1.00;;;;;;5115689;28;20460;-52
2023/08/14 09:28:46;;;;;;;7.90;3.30;;;27.50;1.00;;;;;;5115219;28;20856;-53
2023/08/14 09:31:13;;;;;;;6.23;3.67;;;27.90;1.00;;;;;;5115540;28;20467;-52
2023/08/14 09:33:44;;;;;;;8.70;3.80;;;28.20;1.00;;;;;;5115518;28;20419;-52
2023/08/14 09:36:11;;;;;;;8.30;3.27;;;28.10;1.00;;;;;;5115178;28;20887;-52
2023/08/14 09:38:38;;;;;;;5.93;2.80;;;28.10;1.00;;;;;;5115230;28;20468;-52
2023/08/14 09:41:03;;;;;;;9.40;3.70;;;27.90;1.00;;;;;;5115714;28;20492;-52
2023/08/14 09:43:31;;;;;;;5.87;3.40;;;27.60;1.00;;;;;;5115418;28;20898;-52
2023/08/14 09:45:58;;;;;;;9.03;3.80;;;27.30;1.00;;;;;;5115479;28;20186;-52
2023/08/14 09:48:40;;;;;;;5.63;3.10;;;27.10;1.00;;;;;;5115282;28;20470;-52
2023/08/14 09:51:10;;;;;;;6.77;3.43;;;26.90;1.00;;;;;;5115525;28;20886;-52
2023/08/14 09:54:07;;;;;;;6.17;3.77;;;26.60;1.00;;;;;;5115282;28;20403;-53
2023/08/14 09:56:33;;;;;;;8.03;4.00;;;26.60;1.00;;;;;;5113725;28;20481;-52
2023/08/14 09:58:58;;;;;;;8.03;3.60;;;26.40;1.00;;;;;;5114945;28;20471;-52
2023/08/14 10:01:25;;;;;;;7.90;3.57;;;26.40;1.00;;;;;;5115306;28;20795;-54
2023/08/14 10:03:54;;;;;;;8.93;3.83;;;26.40;1.00;;;;;;5115122;28;20173;-52
2023/08/14 10:06:24;;;;;;;9.07;3.20;;;26.60;1.00;;;;;;5114571;28;20555;-52
2023/08/14 10:08:55;;;;;;;6.73;3.53;;;26.60;1.00;;;;;;5114807;28;20459;-52
2023/08/14 10:11:24;;;;;;;9.53;3.77;;;26.50;1.00;;;;;;5114915;28;20417;-52
2023/08/14 10:13:57;;;;;;;10.13;3.60;;;26.50;1.00;;;;;;5114908;28;20442;-53
2023/08/14 10:16:26;;;;;;;6.60;3.83;;;26.40;1.00;;;;;;5115101;28;20463;-53
2023/08/14 10:18:54;;;;;;;7.50;4.03;;;26.30;1.00;;;;;;5114729;28;20902;-53
2023/08/14 10:21:21;;;;;;;7.63;3.50;;;26.30;1.00;;;;;;5114766;28;20918;-53
2023/08/14 10:23:48;;;;;;;9.80;3.60;;;26.50;1.00;;;;;;5114837;28;20479;-53
2023/08/14 10:26:14;;;;;;;7.63;3.47;;;26.70;1.00;;;;;;5114634;28;20450;-53
2023/08/14 10:28:42;;;;;;;8.47;3.60;;;26.70;1.00;;;;;;5114639;28;20504;-53
2023/08/14 10:31:10;;;;;;;7.60;4.33;;;26.90;1.00;;;;;;5114017;28;20411;-52
2023/08/14 10:33:37;;;;;;;9.40;3.40;;;27.30;1.00;;;;;;5114256;28;20411;-53
2023/08/14 10:36:03;;;;;;;7.73;3.90;;;28.10;1.00;;;;;;5114386;28;20422;-53
2023/08/14 10:38:42;;;;;;;9.73;3.67;;;29.00;1.00;;;;;;5114765;28;20426;-53
2023/08/14 10:41:09;;;;;;;5.67;3.30;;;30.00;1.00;;;;;;5114762;28;20176;-53
2023/08/14 10:43:35;;;;;;;12.27;3.53;;;30.30;1.00;;;;;;5114292;28;20414;-53
2023/08/14 10:46:13;;;;;;;4.80;3.00;;;30.30;1.00;;;;;;5114239;28;20411;-53
2023/08/14 10:48:40;;;;;;;6.70;3.70;;;30.10;1.00;;;;;;5114343;28;20837;-53
2023/08/14 10:51:10;;;;;;;9.50;3.50;;;30.10;1.00;;;;;;5114479;28;20475;-53
2023/08/14 10:53:36;;;;;;;10.53;3.30;;;30.40;1.00;;;;;;5114249;28;20418;-54
2023/08/14 10:56:04;;;;;;;6.13;3.20;;;30.50;1.00;;;;;;5113907;28;21050;-54
2023/08/14 10:58:35;;;;;;;5.60;3.20;;;30.50;1.00;;;;;;5114048;28;20423;-54
2023/08/14 11:01:09;;;;;;;6.77;2.90;;;30.30;1.00;;;;;;5114491;28;20391;-54
2023/08/14 11:03:56;;;;;;;4.90;3.03;;;29.90;1.00;;;;;;5113880;28;20906;-54
2023/08/14 11:06:23;;;;;;;8.73;3.30;;;29.40;1.00;;;;;;5114166;28;20898;-53
2023/08/14 11:08:50;;;;;;;7.00;3.37;;;28.90;1.00;;;;;;5113412;28;20469;-54
2023/08/14 11:11:15;;;;;;;9.50;4.07;;;28.40;1.00;;;;;;5114036;28;20519;-53
2023/08/14 11:13:41;;;;;;;7.60;3.40;;;28.10;1.00;;;;;;5113651;28;20442;-53
2023/08/14 11:16:07;;;;;;;8.60;3.13;;;28.60;1.00;;;;;;5113934;28;20737;-52
2023/08/14 11:18:32;;;;;;;5.37;3.43;;;29.20;1.00;;;;;;5113418;28;20415;-52
2023/08/14 11:21:00;;;;;;;6.17;3.03;;;29.60;1.00;;;;;;5113542;28;20169;-52
2023/08/14 11:23:25;;;;;;;8.07;3.37;;;29.60;1.00;;;;;;5113417;28;20168;-52
2023/08/14 11:25:54;;;;;;;5.97;3.30;;;29.80;1.00;;;;;;5113285;28;20415;-53
2023/08/14 11:28:20;;;;;;;7.93;3.70;;;30.30;1.00;;;;;;5114049;28;20224;-54
2023/08/14 11:30:45;;;;;;;5.37;3.07;;;31.30;1.00;;;;;;5113649;28;20430;-53
2023/08/14 11:33:11;;;;;;;4.90;3.03;;;31.70;1.00;;;;;;5114037;28;20185;-54
2023/08/14 11:35:37;;;;;;;4.63;3.40;;;31.80;99.90;;;;;;5114072;28;20172;-54
2023/08/14 11:38:02;;;;;;;5.77;3.30;;;31.20;99.90;;;;;;5114150;28;20215;-54
2023/08/14 11:40:28;;;;;;;4.17;3.30;;;30.70;99.90;;;;;;5114141;28;20181;-54
2023/08/14 11:42:56;;;;;;;6.70;3.20;;;30.10;99.90;;;;;;5114859;28;20188;-53
2023/08/14 11:45:21;;;;;;;6.10;3.23;;;30.20;1.00;;;;;;5118081;28;20212;-53
2023/08/14 11:47:49;;;;;;;4.67;3.43;;;30.90;1.00;;;;;;5117723;28;20711;-55
2023/08/14 11:50:16;;;;;;;5.50;3.00;;;31.10;1.00;;;;;;5117335;28;20184;-53
2023/08/14 11:52:42;;;;;;;6.17;3.60;;;30.70;99.90;;;;;;5117603;28;20414;-53
2023/08/14 11:55:09;;;;;;;5.53;3.53;;;30.70;99.90;;;;;;5117725;28;20414;-53
2023/08/14 11:57:35;;;;;;;5.17;3.33;;;31.00;99.90;;;;;;5117578;28;20503;-53
2023/08/14 12:00:01;;;;;;;6.13;3.83;;;30.60;99.90;;;;;;5117642;28;20419;-54
2023/08/14 12:02:28;;;;;;;7.20;3.73;;;29.80;99.90;;;;;;5117595;28;20402;-53
2023/08/14 12:05:00;;;;;;;6.43;3.57;;;29.10;1.00;;;;;;5117280;28;20181;-53
2023/08/14 12:07:27;;;;;;;5.83;3.80;;;28.60;1.00;;;;;;5117323;28;20485;-53
2023/08/14 12:09:54;;;;;;;5.90;3.70;;;28.30;1.00;;;;;;5117115;28;20414;-54
2023/08/14 12:12:20;;;;;;;12.50;3.90;;;29.00;1.00;;;;;;5117331;28;20407;-53
2023/08/14 12:14:47;;;;;;;6.70;4.13;;;30.40;1.00;;;;;;5116784;28;20911;-53
2023/08/14 12:17:15;;;;;;;3.53;2.87;;;31.40;1.00;;;;;;5117334;28;20411;-53
2023/08/14 12:19:42;;;;;;;4.33;2.93;;;32.10;1.00;;;;;;5116750;28;20411;-55
2023/08/14 12:22:09;;;;;;;5.07;3.23;;;32.40;99.90;;;;;;5116669;28;20871;-54
2023/08/14 12:24:38;;;;;;;4.43;2.83;;;31.90;99.90;;;;;;5116801;28;20827;-54
2023/08/14 12:27:12;;;;;;;7.60;3.50;;;31.60;99.90;;;;;;5116711;28;20462;-54
2023/08/14 12:29:38;;;;;;;8.30;3.57;;;31.80;99.90;;;;;;5116110;28;20446;-55
2023/08/14 12:32:03;;;;;;;4.40;3.20;;;31.80;99.90;;;;;;5116284;28;20439;-54
2023/08/14 12:34:29;;;;;;;5.97;3.27;;;31.50;99.90;;;;;;5116373;28;20188;-54
2023/08/14 12:36:55;;;;;;;5.93;3.63;;;31.70;99.90;;;;;;5116310;28;20177;-54
2023/08/14 12:39:20;;;;;;;3.60;3.30;;;31.80;99.90;;;;;;5116610;28;20696;-55
2023/08/14 12:41:46;;;;;;;5.93;3.30;;;31.30;99.90;;;;;;5116318;28;20177;-55
2023/08/14 12:44:12;;;;;;;6.50;3.80;;;31.00;99.90;;;;;;5116493;28;20204;-54